Sheridan, WY

9:37 AM MST on February 01, 2015 (GMT -0700)
Johnson County | Change Station
CLOSE
Current Station
Airport
Location: Buffalo,
Elevation: 4967 ft
Nearby Weather Stations

Elev 4967 ft 44.38 °N, 106.72 °W | Updated 44 minutes ago

Clear
Clear
9 °F
Feels Like 2 °F
N
4
Wind Variable Wind from NNW

Today
High -- | Low -- °F
--% Chance of Precip.
Yesterday
High -- | Low -- °F
Precip. -- in
7:27 AM 5:16 PM
Waxing Gibbous, 95% visible
Pressure 30.45 in
Visibility 10.0 miles
Clouds Overcast 2300 ft
Windchill 2 °F
Dew Point 4 °F
Humidity 80%
Rainfall 0.00 in
Snow Depth Not available.
UV 0 out of 12
Pollen .10 out of 12
Air Quality Not available.
Flu Activity Not available.
METAR KBYG 011553Z AUTO 33003KT 10SM OVC023 M13/M16 A3025 RMK AO2 SLP312 T11281156 $

More Conditions Fewer Conditions

Pressure 30.45 in
Visibility 10.0 miles
Clouds Overcast 2300 ft
Windchill 2 °F
Dew Point 4 °F
Humidity 80%
Rainfall 0.00 in
Snow Depth Not available.
UV 0 out of 12
Pollen .10 out of 12
Air Quality Not available.
Flu Activity Not available.
METAR KBYG 011553Z AUTO 33003KT 10SM OVC023 M13/M16 A3025 RMK AO2 SLP312 T11281156 $

More Conditions Fewer Conditions

10-Day Weather Forecast

Almanac

Astronomy

Feb. 01, 2015 Rise Set
Actual Time
Civil Twilight
Nautical Twilight
Astronomical Twilight
Moon
Length of Visible Light
Length of Day
Tomorrow will be .
, % of the Moon is Illuminated

Today's Extremes

State Highs State Lows

Community

WunderPhotos

Upload Photos

1,792,362 photos uploaded!

WunderBlogs® & News

Nearby

Air Quality

  Air Quality AQ Index Pollutant
Not available.

Snow Depth

Station Depth Elevation

Earthquake Activity

City Distance Mag. Time & Date
Minimum magnitude displayed is 2.5.

Coastal Water Temperatures

Place Temperature

Nearby Weather Stations